createdAt,value
2022-10-04T00:01:04.825Z,9.17
2022-10-04T00:03:11.344Z,9.11
2022-10-04T00:05:18.012Z,9.07
2022-10-04T00:07:24.878Z,9.08
2022-10-04T00:09:35.235Z,9.05
2022-10-04T00:11:39.974Z,9.08
2022-10-04T00:13:50.768Z,9.09
2022-10-04T00:15:53.867Z,9.10
2022-10-04T00:18:29.197Z,9.10
2022-10-04T00:20:58.315Z,8.99
2022-10-04T00:23:29.898Z,9.06
2022-10-04T00:25:37.635Z,8.99
2022-10-04T00:27:41.807Z,9.00
2022-10-04T00:29:44.548Z,9.04
2022-10-04T00:32:25.295Z,8.98
2022-10-04T00:34:48.129Z,8.98
2022-10-04T00:36:55.362Z,8.94
2022-10-04T00:39:16.003Z,8.85
2022-10-04T00:41:21.831Z,8.85
2022-10-04T00:43:29.309Z,8.85
2022-10-04T00:45:41.588Z,8.88
2022-10-04T00:48:10.784Z,8.85
2022-10-04T00:50:18.451Z,8.86
2022-10-04T00:52:26.601Z,8.88
2022-10-04T00:54:34.215Z,8.87
2022-10-04T00:56:44.153Z,8.89
2022-10-04T00:59:04.648Z,8.84
2022-10-04T01:01:07.788Z,8.88
2022-10-04T01:03:16.084Z,8.89
2022-10-04T01:05:23.174Z,8.82
2022-10-04T01:07:30.683Z,8.70
2022-10-04T01:09:37.860Z,8.69
2022-10-04T01:11:46.563Z,8.60
2022-10-04T01:13:56.212Z,8.55
2022-10-04T01:16:04.377Z,8.60
2022-10-04T01:18:09.820Z,8.56
2022-10-04T01:20:31.119Z,8.52
2022-10-04T01:22:38.986Z,8.51
2022-10-04T01:24:43.855Z,8.48
2022-10-04T01:26:46.858Z,8.40
2022-10-04T01:28:49.492Z,8.41
2022-10-04T01:30:52.957Z,8.33
2022-10-04T01:32:55.573Z,8.24
2022-10-04T01:34:59.358Z,8.21
2022-10-04T01:37:02.224Z,8.26
2022-10-04T01:39:07.834Z,8.26
2022-10-04T01:41:14.552Z,8.29
2022-10-04T01:43:23.187Z,8.34
2022-10-04T01:45:33.696Z,8.33
2022-10-04T01:47:42.359Z,8.16
2022-10-04T01:49:47.779Z,8.23
2022-10-04T01:51:57.056Z,8.12
2022-10-04T01:54:06.290Z,8.07
2022-10-04T01:56:14.874Z,8.07
2022-10-04T01:58:20.978Z,8.07
2022-10-04T02:00:24.685Z,8.08
2022-10-04T02:02:35.592Z,7.91
2022-10-04T02:04:41.485Z,7.85
2022-10-04T02:06:46.521Z,7.87
2022-10-04T02:08:51.853Z,7.82
2022-10-04T02:10:55.687Z,7.81
2022-10-04T02:13:00.918Z,7.82
2022-10-04T02:15:08.990Z,7.89
2022-10-04T02:17:13.265Z,7.77
2022-10-04T02:19:17.184Z,7.72
2022-10-04T02:21:21.152Z,7.68
2022-10-04T02:23:25.292Z,7.72
2022-10-04T02:25:28.125Z,7.77
2022-10-04T02:27:31.582Z,7.86
2022-10-04T02:29:35.953Z,7.87
2022-10-04T02:31:57.658Z,7.86
2022-10-04T02:34:01.185Z,7.86
2022-10-04T02:36:04.991Z,7.79
2022-10-04T02:38:14.743Z,7.75
2022-10-04T02:40:22.253Z,7.73
2022-10-04T02:42:38.595Z,7.72
2022-10-04T02:44:47.039Z,7.63
2022-10-04T02:46:54.396Z,7.63
2022-10-04T02:49:00.525Z,7.64
2022-10-04T02:51:15.933Z,7.65
2022-10-04T02:53:23.373Z,7.67
2022-10-04T02:55:28.797Z,7.68
2022-10-04T02:57:34.066Z,7.64
2022-10-04T02:59:40.466Z,7.67
2022-10-04T03:01:52.488Z,7.67
2022-10-04T03:03:57.036Z,7.65
2022-10-04T03:06:05.131Z,7.59
2022-10-04T03:08:08.002Z,7.64
2022-10-04T03:10:13.707Z,7.66
2022-10-04T03:12:16.899Z,7.70
2022-10-04T03:14:22.236Z,7.72
2022-10-04T03:16:25.012Z,7.73
2022-10-04T03:18:30.461Z,7.70
2022-10-04T03:20:37.387Z,7.71
2022-10-04T03:22:44.850Z,7.64
2022-10-04T03:24:53.491Z,7.70
2022-10-04T03:27:00.906Z,7.72
2022-10-04T03:29:09.552Z,7.73
2022-10-04T03:31:12.769Z,7.66
2022-10-04T03:33:19.765Z,7.62
2022-10-04T03:35:34.062Z,7.62
2022-10-04T03:37:39.250Z,7.62
2022-10-04T03:39:45.151Z,7.66
2022-10-04T03:41:48.001Z,7.62
2022-10-04T03:43:51.879Z,7.61
2022-10-04T03:45:54.930Z,7.72
2022-10-04T03:48:04.978Z,7.71
2022-10-04T03:50:16.713Z,7.72
2022-10-04T03:52:24.947Z,7.74
2022-10-04T03:54:29.016Z,7.78
2022-10-04T03:56:35.094Z,7.76
2022-10-04T03:58:37.910Z,7.76
2022-10-04T04:00:45.409Z,7.81
2022-10-04T04:02:53.882Z,7.75
2022-10-04T04:05:05.836Z,7.69
2022-10-04T04:07:14.146Z,7.72
2022-10-04T04:09:24.781Z,7.69
2022-10-04T04:11:28.768Z,7.66
2022-10-04T04:13:48.033Z,7.76
2022-10-04T04:15:50.849Z,7.73
2022-10-04T04:17:55.263Z,7.66
2022-10-04T04:20:06.153Z,7.57
2022-10-04T04:22:16.261Z,7.54
2022-10-04T04:24:27.326Z,7.55
2022-10-04T04:26:36.959Z,7.57
2022-10-04T04:28:43.412Z,7.65
2022-10-04T04:30:50.487Z,7.65
2022-10-04T04:32:57.547Z,7.66
2022-10-04T04:35:06.952Z,7.73
2022-10-04T04:37:11.765Z,7.72
2022-10-04T04:39:37.380Z,7.73
2022-10-04T04:41:43.793Z,7.71
2022-10-04T04:43:49.571Z,7.77
2022-10-04T04:46:15.044Z,7.82
2022-10-04T04:48:18.819Z,7.76
2022-10-04T04:50:24.445Z,7.76
2022-10-04T04:52:30.408Z,7.76
2022-10-04T04:54:34.116Z,7.76
2022-10-04T04:56:36.881Z,7.74
2022-10-04T04:58:46.488Z,7.74
2022-10-04T05:00:55.815Z,7.68
2022-10-04T05:03:01.292Z,7.66
2022-10-04T05:05:21.577Z,7.60
2022-10-04T05:07:24.975Z,7.62
2022-10-04T05:09:30.860Z,7.55
2022-10-04T05:11:36.052Z,7.62
2022-10-04T05:13:45.220Z,7.56
2022-10-04T05:15:51.065Z,7.55
2022-10-04T05:17:53.737Z,7.56
2022-10-04T05:20:00.384Z,7.59
2022-10-04T05:22:09.247Z,7.56
2022-10-04T05:24:15.396Z,7.57
2022-10-04T05:26:25.671Z,7.60
2022-10-04T05:28:28.514Z,7.49
2022-10-04T05:30:48.639Z,7.34
2022-10-04T05:32:59.879Z,7.43
2022-10-04T05:35:02.780Z,7.43
2022-10-04T05:37:24.169Z,7.44
2022-10-04T05:39:33.249Z,7.48
2022-10-04T05:41:41.023Z,7.52
2022-10-04T05:43:46.983Z,7.49
2022-10-04T05:46:14.181Z,7.46
2022-10-04T05:48:17.238Z,7.44
2022-10-04T05:50:24.055Z,7.45
2022-10-04T05:52:30.433Z,7.49
2022-10-04T05:54:35.778Z,7.54
2022-10-04T05:57:04.067Z,7.57
2022-10-04T05:59:22.768Z,7.59
2022-10-04T06:01:42.437Z,7.56
2022-10-04T06:03:59.507Z,7.53
2022-10-04T06:06:07.350Z,7.55
2022-10-04T06:08:20.259Z,7.62
2022-10-04T06:10:46.025Z,7.67
2022-10-04T06:12:57.138Z,7.57
2022-10-04T06:15:25.585Z,7.57
2022-10-04T06:17:51.005Z,7.63
2022-10-04T06:20:27.163Z,7.61
2022-10-04T06:22:30.018Z,7.67
2022-10-04T06:24:36.872Z,7.74
2022-10-04T06:26:44.695Z,7.62
2022-10-04T06:28:52.116Z,7.45
2022-10-04T06:31:28.534Z,7.45
2022-10-04T06:33:49.016Z,7.49
2022-10-04T06:36:06.193Z,7.48
2022-10-04T06:38:32.044Z,7.50
2022-10-04T06:41:09.715Z,7.53
2022-10-04T06:43:26.876Z,7.62
2022-10-04T06:45:40.851Z,7.74
2022-10-04T06:48:03.418Z,7.68
2022-10-04T06:50:22.460Z,7.68
2022-10-04T06:52:39.737Z,7.70
2022-10-04T06:55:02.504Z,7.64
2022-10-04T06:57:32.486Z,7.70
2022-10-04T06:59:49.796Z,7.76
2022-10-04T07:01:58.840Z,7.83
2022-10-04T07:04:22.161Z,7.93
2022-10-04T07:06:31.366Z,8.00
2022-10-04T07:08:40.577Z,7.99
2022-10-04T07:10:52.120Z,8.07
2022-10-04T07:13:10.078Z,8.12
2022-10-04T07:15:20.013Z,8.14
2022-10-04T07:17:28.244Z,8.15
2022-10-04T07:19:37.753Z,8.16
2022-10-04T07:21:51.114Z,8.18
2022-10-04T07:23:58.002Z,8.17
2022-10-04T07:26:05.998Z,8.24
2022-10-04T07:28:31.264Z,8.37
2022-10-04T07:30:39.459Z,8.40
2022-10-04T07:32:46.563Z,8.42
2022-10-04T07:34:55.526Z,8.48
2022-10-04T07:37:03.189Z,8.58
2022-10-04T07:39:12.164Z,8.65
2022-10-04T07:41:22.021Z,8.59
2022-10-04T07:43:29.614Z,8.53
2022-10-04T07:45:36.141Z,8.52
2022-10-04T07:47:38.887Z,8.51
2022-10-04T07:49:42.316Z,8.61
2022-10-04T07:52:05.255Z,8.60
2022-10-04T07:54:17.827Z,8.57
2022-10-04T07:56:28.008Z,8.64
2022-10-04T07:58:45.919Z,8.71
2022-10-04T08:00:56.383Z,8.75
2022-10-04T08:03:26.708Z,8.76
2022-10-04T08:05:38.050Z,8.75
2022-10-04T08:07:57.908Z,8.57
2022-10-04T08:10:09.397Z,8.69
2022-10-04T08:12:22.192Z,8.64
2022-10-04T08:14:39.481Z,8.71
2022-10-04T08:16:55.508Z,8.77
2022-10-04T08:19:13.381Z,8.85
2022-10-04T08:21:26.689Z,8.86
2022-10-04T08:23:52.806Z,8.94
2022-10-04T08:26:08.162Z,8.96
2022-10-04T08:28:44.865Z,9.02
2022-10-04T08:31:09.280Z,9.09
2022-10-04T08:33:25.181Z,9.17
2022-10-04T08:35:37.665Z,9.19
2022-10-04T08:37:53.597Z,9.24
2022-10-04T08:40:24.369Z,9.29
2022-10-04T08:43:01.197Z,9.34
2022-10-04T08:45:38.129Z,9.41
2022-10-04T08:48:22.505Z,9.49
2022-10-04T08:50:44.236Z,9.52
2022-10-04T08:53:11.099Z,9.50
2022-10-04T08:55:53.741Z,9.50
2022-10-04T08:58:15.184Z,9.55
2022-10-04T09:00:21.822Z,9.55
2022-10-04T09:03:12.108Z,9.59
2022-10-04T09:05:33.291Z,9.63
2022-10-04T09:08:00.189Z,9.63
2022-10-04T09:10:35.576Z,9.65
2022-10-04T09:13:06.368Z,9.68
2022-10-04T09:15:26.983Z,9.73
2022-10-04T09:17:40.319Z,9.77
2022-10-04T09:19:55.241Z,9.78
2022-10-04T09:22:19.862Z,9.80
2022-10-04T09:24:53.208Z,9.80
2022-10-04T09:27:07.785Z,9.83
2022-10-04T09:29:21.767Z,9.88
2022-10-04T09:32:14.915Z,9.93
2022-10-04T09:34:37.224Z,9.92
2022-10-04T09:37:20.225Z,9.98
2022-10-04T09:39:44.728Z,10.05
2022-10-04T09:42:18.681Z,10.14
2022-10-04T09:44:46.039Z,10.24
2022-10-04T09:47:03.617Z,10.33
2022-10-04T09:49:20.548Z,10.37
2022-10-04T09:51:40.185Z,10.45
2022-10-04T09:53:52.939Z,10.53
2022-10-04T09:56:18.146Z,10.64
2022-10-04T09:58:36.199Z,10.68
2022-10-04T10:00:46.525Z,10.74
2022-10-04T10:03:18.978Z,10.80
2022-10-04T10:05:32.013Z,10.87
2022-10-04T10:07:47.109Z,10.92
2022-10-04T10:10:15.622Z,11.02
2022-10-04T10:13:02.579Z,11.02
2022-10-04T10:15:19.164Z,11.05
2022-10-04T10:17:28.807Z,11.04
2022-10-04T10:20:00.315Z,11.07
2022-10-04T10:22:31.274Z,11.06
2022-10-04T10:24:58.128Z,11.07
2022-10-04T10:27:14.884Z,11.09
2022-10-04T10:29:41.797Z,11.11
2022-10-04T10:32:00.689Z,11.12
2022-10-04T10:34:31.013Z,11.15
2022-10-04T10:37:09.021Z,11.17
2022-10-04T10:39:43.149Z,11.18
2022-10-04T10:42:17.571Z,11.21
2022-10-04T10:44:37.395Z,11.24
2022-10-04T10:46:58.808Z,11.31
2022-10-04T10:49:27.098Z,11.34
2022-10-04T10:51:56.091Z,11.44
2022-10-04T10:54:36.116Z,11.48
2022-10-04T10:56:47.877Z,11.55
2022-10-04T10:59:02.594Z,11.55
2022-10-04T11:01:32.387Z,11.61
2022-10-04T11:03:59.592Z,11.63
2022-10-04T11:06:31.256Z,11.79
2022-10-04T11:09:23.875Z,11.81
2022-10-04T11:11:44.973Z,11.81
2022-10-04T11:14:11.832Z,11.81
2022-10-04T11:16:50.225Z,11.85
2022-10-04T11:19:29.128Z,11.89
2022-10-04T11:22:12.649Z,11.99
2022-10-04T11:24:47.595Z,12.03
2022-10-04T11:27:12.225Z,12.09
2022-10-04T11:29:29.307Z,12.18
2022-10-04T11:32:05.578Z,12.23
2022-10-04T11:34:35.599Z,12.25
2022-10-04T11:36:48.952Z,12.26
2022-10-04T11:39:20.473Z,12.29
2022-10-04T11:41:34.636Z,12.30
2022-10-04T11:44:03.613Z,12.30
2022-10-04T11:46:29.544Z,12.33
2022-10-04T11:48:42.131Z,12.39
2022-10-04T11:51:06.427Z,12.45
2022-10-04T11:53:32.310Z,12.54
2022-10-04T11:55:58.370Z,12.61
2022-10-04T11:58:11.746Z,12.70
2022-10-04T12:00:18.558Z,12.77
2022-10-04T12:02:53.457Z,12.88
2022-10-04T12:05:33.623Z,12.99
2022-10-04T12:07:50.852Z,13.07
2022-10-04T12:10:04.364Z,13.17
2022-10-04T12:12:38.644Z,13.28
2022-10-04T12:15:05.567Z,13.35
2022-10-04T12:17:32.947Z,13.41
2022-10-04T12:20:12.062Z,13.46
2022-10-04T12:22:32.984Z,13.54
2022-10-04T12:24:58.793Z,13.59
2022-10-04T12:27:29.236Z,13.65
2022-10-04T12:30:01.303Z,13.68
2022-10-04T12:32:10.669Z,13.73
2022-10-04T12:34:21.350Z,13.75
2022-10-04T12:36:40.853Z,13.78
2022-10-04T12:38:54.078Z,13.84
2022-10-04T12:41:06.000Z,13.89
2022-10-04T12:43:16.991Z,13.94
2022-10-04T12:45:39.537Z,13.94
2022-10-04T12:47:56.890Z,13.97
2022-10-04T12:50:09.458Z,13.99
2022-10-04T12:52:20.071Z,14.04
2022-10-04T12:54:35.015Z,14.14
2022-10-04T12:56:48.212Z,14.22
2022-10-04T12:59:05.759Z,14.30
2022-10-04T13:01:16.796Z,14.38
2022-10-04T13:03:32.802Z,14.40
2022-10-04T13:05:44.401Z,14.42
2022-10-04T13:08:32.553Z,14.42
2022-10-04T13:10:48.763Z,14.38
2022-10-04T13:13:24.237Z,14.34
2022-10-04T13:17:24.581Z,14.37
2022-10-04T13:18:05.038Z,14.46
2022-10-04T13:20:25.997Z,14.53
2022-10-04T13:22:56.658Z,14.63
2022-10-04T13:25:18.222Z,14.72
2022-10-04T13:27:29.800Z,14.82
2022-10-04T13:29:38.430Z,14.98
2022-10-04T13:31:49.667Z,15.22
2022-10-04T13:34:02.667Z,15.54
2022-10-04T13:36:10.324Z,15.85
2022-10-04T13:38:32.365Z,16.19
2022-10-04T13:40:42.066Z,16.51
2022-10-04T13:43:07.060Z,16.80
2022-10-04T13:45:27.778Z,17.10
2022-10-04T13:47:48.063Z,17.31
2022-10-04T13:50:06.139Z,17.56
2022-10-04T13:52:40.516Z,17.77
2022-10-04T13:55:11.216Z,17.92
2022-10-04T13:57:25.408Z,18.09
2022-10-04T13:59:44.421Z,18.21
2022-10-04T14:02:13.906Z,18.33
2022-10-04T14:04:43.453Z,18.41
2022-10-04T14:07:07.069Z,18.49
2022-10-04T14:09:36.175Z,18.58
2022-10-04T14:11:51.965Z,18.65
2022-10-04T14:14:28.973Z,18.73
2022-10-04T14:17:13.006Z,18.80
2022-10-04T14:19:49.777Z,18.88
2022-10-04T14:22:12.546Z,18.96
2022-10-04T14:24:44.227Z,19.03
2022-10-04T14:27:13.627Z,19.16
2022-10-04T14:29:50.778Z,19.34
2022-10-04T14:32:41.211Z,19.40
2022-10-04T14:34:58.238Z,19.48
2022-10-04T14:37:36.140Z,19.51
2022-10-04T14:40:05.553Z,19.49
2022-10-04T14:42:32.075Z,19.45
2022-10-04T14:45:04.377Z,19.43
2022-10-04T14:47:20.400Z,19.37
2022-10-04T14:49:39.430Z,19.28
2022-10-04T14:52:06.438Z,19.15
2022-10-04T14:54:13.648Z,18.99
2022-10-04T14:56:36.019Z,18.80
2022-10-04T14:58:51.930Z,18.65
2022-10-04T15:01:19.773Z,18.51
2022-10-04T15:03:33.485Z,18.39
2022-10-04T15:05:46.074Z,18.29
2022-10-04T15:07:53.743Z,18.20
2022-10-04T15:10:04.322Z,18.12
2022-10-04T15:14:36.853Z,18.12
2022-10-04T15:16:53.010Z,18.15
2022-10-04T15:19:00.179Z,18.18
2022-10-04T15:21:07.869Z,18.19
2022-10-04T15:23:16.961Z,18.23
2022-10-04T15:25:41.223Z,18.30
2022-10-04T15:27:53.402Z,18.30
2022-10-04T15:30:04.362Z,18.31
2022-10-04T15:32:24.215Z,18.33
2022-10-04T15:34:36.332Z,18.32
2022-10-04T15:36:50.490Z,18.26
2022-10-04T15:39:01.787Z,18.18
2022-10-04T15:41:17.129Z,18.08
2022-10-04T15:43:28.118Z,17.96
2022-10-04T15:45:48.836Z,17.84
2022-10-04T15:48:06.389Z,17.73
2022-10-04T15:50:25.211Z,17.63
2022-10-04T15:52:54.748Z,17.50
2022-10-04T15:55:17.651Z,17.38
2022-10-04T15:57:31.449Z,17.26
2022-10-04T15:59:47.418Z,17.18
2022-10-04T16:02:04.477Z,17.08
2022-10-04T16:04:33.287Z,16.99
2022-10-04T16:06:48.988Z,16.89
2022-10-04T16:09:14.991Z,16.80
2022-10-04T16:11:47.166Z,16.73
2022-10-04T16:13:57.298Z,16.67
2022-10-04T16:16:39.885Z,16.58
2022-10-04T16:18:52.897Z,16.52
2022-10-04T16:21:07.243Z,16.45
2022-10-04T16:23:25.064Z,16.39
2022-10-04T16:25:38.690Z,16.34
2022-10-04T16:27:51.257Z,16.32
2022-10-04T16:30:25.554Z,16.30
2022-10-04T16:32:31.696Z,16.27
2022-10-04T16:34:46.461Z,16.24
2022-10-04T16:36:55.779Z,16.24
2022-10-04T16:39:20.197Z,16.21
2022-10-04T16:41:34.947Z,16.18
2022-10-04T16:43:48.003Z,16.15
2022-10-04T16:46:09.466Z,16.11
2022-10-04T16:48:27.179Z,16.06
2022-10-04T16:51:06.401Z,16.02
2022-10-04T16:53:30.488Z,15.99
2022-10-04T16:55:54.121Z,15.95
2022-10-04T16:58:41.401Z,15.90
2022-10-04T17:00:44.486Z,15.83
2022-10-04T17:03:05.963Z,15.79
2022-10-04T17:05:22.764Z,15.72
2022-10-04T17:07:37.123Z,15.65
2022-10-04T17:09:48.640Z,15.60
2022-10-04T17:12:08.106Z,15.52
2022-10-04T17:14:33.780Z,15.45
2022-10-04T17:16:38.992Z,15.38
2022-10-04T17:18:52.037Z,15.31
2022-10-04T17:20:58.219Z,15.24
2022-10-04T17:23:18.450Z,15.17
2022-10-04T17:25:32.686Z,15.09
2022-10-04T17:27:47.655Z,15.05
2022-10-04T17:30:03.856Z,15.00
2022-10-04T17:32:17.631Z,14.90
2022-10-04T17:34:30.768Z,14.83
2022-10-04T17:36:37.518Z,14.76
2022-10-04T17:38:51.006Z,14.69
2022-10-04T17:41:05.345Z,14.65
2022-10-04T17:43:17.324Z,14.60
2022-10-04T17:45:47.335Z,14.60
2022-10-04T17:48:17.153Z,14.61
2022-10-04T17:50:49.978Z,14.63
2022-10-04T17:53:18.593Z,14.67
2022-10-04T17:55:28.707Z,14.70
2022-10-04T17:57:42.028Z,14.72
2022-10-04T17:59:48.361Z,14.75
2022-10-04T18:01:55.737Z,14.83
2022-10-04T18:04:08.963Z,14.82
2022-10-04T18:06:25.063Z,14.82
2022-10-04T18:08:42.613Z,14.78
2022-10-04T18:10:51.347Z,14.78
2022-10-04T18:13:01.956Z,14.77
2022-10-04T18:15:16.190Z,14.76
2022-10-04T18:17:30.934Z,14.74
2022-10-04T18:19:44.538Z,14.73
2022-10-04T18:21:52.722Z,14.72
2022-10-04T18:23:59.004Z,14.69
2022-10-04T18:26:04.322Z,14.68
2022-10-04T18:28:15.183Z,14.67
2022-10-04T18:30:19.747Z,14.65
2022-10-04T18:32:33.232Z,14.68
2022-10-04T18:34:37.494Z,14.64
2022-10-04T18:36:52.626Z,14.64
2022-10-04T18:39:04.955Z,14.63
2022-10-04T18:41:18.921Z,14.61
2022-10-04T18:43:29.663Z,14.60
2022-10-04T18:45:33.999Z,14.63
2022-10-04T18:47:39.413Z,14.60
2022-10-04T18:49:49.697Z,14.67
2022-10-04T18:52:07.308Z,14.63
2022-10-04T18:54:25.111Z,14.61
2022-10-04T18:56:33.899Z,14.61
2022-10-04T18:59:20.077Z,14.58
2022-10-04T19:02:11.464Z,14.57
2022-10-04T19:04:20.358Z,14.56
2022-10-04T19:06:27.541Z,14.53
2022-10-04T19:08:47.063Z,14.51
2022-10-04T19:10:52.519Z,14.49
2022-10-04T19:13:04.768Z,14.46
2022-10-04T19:15:23.097Z,14.42
2022-10-04T19:17:30.492Z,14.42
2022-10-04T19:19:42.981Z,14.42
2022-10-04T19:21:51.428Z,14.44
2022-10-04T19:24:21.875Z,14.42
2022-10-04T19:26:33.280Z,14.40
2022-10-04T19:28:38.216Z,14.38
2022-10-04T19:31:00.036Z,14.37
2022-10-04T19:33:13.944Z,14.35
2022-10-04T19:35:31.302Z,14.33
2022-10-04T19:37:41.339Z,14.31
2022-10-04T19:39:54.861Z,14.36
2022-10-04T19:42:00.829Z,14.34
2022-10-04T19:44:12.525Z,14.34
2022-10-04T19:46:29.588Z,14.32
2022-10-04T19:48:40.363Z,14.29
2022-10-04T19:50:48.953Z,14.25
2022-10-04T19:53:00.681Z,14.24
2022-10-04T19:55:17.497Z,14.22
2022-10-04T19:57:29.658Z,14.22
2022-10-04T19:59:38.321Z,14.21
2022-10-04T20:01:42.505Z,14.17
2022-10-04T20:03:45.742Z,14.14
2022-10-04T20:05:49.743Z,14.11
2022-10-04T20:07:56.559Z,14.06
2022-10-04T20:10:22.270Z,14.04
2022-10-04T20:12:35.358Z,14.01
2022-10-04T20:14:46.990Z,13.99
2022-10-04T20:17:30.547Z,13.95
2022-10-04T20:19:43.150Z,13.92
2022-10-04T20:21:45.899Z,13.91
2022-10-04T20:23:56.676Z,13.88
2022-10-04T20:26:03.917Z,13.87
2022-10-04T20:28:06.797Z,13.85
2022-10-04T20:30:14.299Z,13.81
2022-10-04T20:32:50.501Z,13.78
2022-10-04T20:34:55.912Z,13.74
2022-10-04T20:36:58.507Z,13.71
2022-10-04T20:39:01.862Z,13.69
2022-10-04T20:41:04.530Z,13.66
2022-10-04T20:43:53.742Z,13.63
2022-10-04T20:45:57.219Z,13.58
2022-10-04T20:48:00.124Z,13.56
2022-10-04T20:50:08.139Z,13.52
2022-10-04T20:52:15.343Z,13.50
2022-10-04T20:54:18.351Z,13.50
2022-10-04T20:56:24.381Z,13.46
2022-10-04T20:58:32.617Z,13.42
2022-10-04T21:00:35.787Z,13.35
2022-10-04T21:02:38.601Z,13.40
2022-10-04T21:04:44.215Z,13.32
2022-10-04T21:06:53.075Z,13.26
2022-10-04T21:08:55.741Z,13.21
2022-10-04T21:11:19.722Z,13.18
2022-10-04T21:13:55.597Z,13.09
2022-10-04T21:15:58.243Z,13.05
2022-10-04T21:18:03.461Z,13.05
2022-10-04T21:20:07.479Z,13.01
2022-10-04T21:22:27.767Z,12.97
2022-10-04T21:24:38.803Z,12.91
2022-10-04T21:26:56.199Z,12.86
2022-10-04T21:28:59.908Z,12.83
2022-10-04T21:31:04.051Z,12.78
2022-10-04T21:33:07.101Z,12.70
2022-10-04T21:35:11.537Z,12.62
2022-10-04T21:37:16.369Z,12.54
2022-10-04T21:39:19.090Z,12.46
2022-10-04T21:41:21.720Z,12.44
2022-10-04T21:43:25.898Z,12.48
2022-10-04T21:45:28.441Z,12.37
2022-10-04T21:47:30.995Z,12.35
2022-10-04T21:49:33.588Z,12.30
2022-10-04T21:51:37.434Z,12.25
2022-10-04T21:53:41.438Z,12.22
2022-10-04T21:55:44.177Z,12.20
2022-10-04T21:57:46.720Z,12.16
2022-10-04T21:59:49.285Z,12.11
2022-10-04T22:01:52.357Z,12.11
2022-10-04T22:03:57.011Z,12.07
2022-10-04T22:05:59.582Z,12.02
2022-10-04T22:08:02.180Z,12.04
2022-10-04T22:10:06.898Z,12.00
2022-10-04T22:12:09.592Z,12.01
2022-10-04T22:14:12.195Z,12.02
2022-10-04T22:16:14.856Z,12.03
2022-10-04T22:18:17.475Z,12.05
2022-10-04T22:20:20.145Z,12.03
2022-10-04T22:22:22.725Z,12.03
2022-10-04T22:24:25.371Z,11.99
2022-10-04T22:26:29.403Z,11.97
2022-10-04T22:28:32.110Z,11.90
2022-10-04T22:30:36.279Z,11.88
2022-10-04T22:32:39.119Z,11.85
2022-10-04T22:34:41.719Z,11.88
2022-10-04T22:36:44.997Z,11.87
2022-10-04T22:38:52.077Z,11.85
2022-10-04T22:40:54.727Z,11.86
2022-10-04T22:43:00.889Z,11.84
2022-10-04T22:45:06.165Z,11.83
2022-10-04T22:47:13.490Z,11.83
2022-10-04T22:49:18.064Z,11.84
2022-10-04T22:51:21.153Z,11.82
2022-10-04T22:53:24.867Z,11.82
2022-10-04T22:55:27.478Z,11.78
2022-10-04T22:57:31.576Z,11.73
2022-10-04T22:59:38.715Z,11.70
2022-10-04T23:01:41.646Z,11.68
2022-10-04T23:03:49.032Z,11.62
2022-10-04T23:05:51.752Z,11.58
2022-10-04T23:07:54.358Z,11.56
2022-10-04T23:09:56.917Z,11.55
2022-10-04T23:11:59.613Z,11.49
2022-10-04T23:14:02.199Z,11.49
2022-10-04T23:16:13.998Z,11.47
2022-10-04T23:18:17.182Z,11.39
2022-10-04T23:20:21.348Z,11.39
2022-10-04T23:22:28.229Z,11.36
2022-10-04T23:24:31.396Z,11.31
2022-10-04T23:26:39.142Z,11.30
2022-10-04T23:28:41.710Z,11.26
2022-10-04T23:30:45.500Z,11.25
2022-10-04T23:32:51.489Z,11.23
2022-10-04T23:34:56.930Z,11.23
2022-10-04T23:37:00.061Z,11.19
2022-10-04T23:39:02.949Z,11.18
2022-10-04T23:41:10.192Z,11.14
2022-10-04T23:43:18.076Z,11.13
2022-10-04T23:45:22.799Z,11.09
2022-10-04T23:47:33.054Z,11.06
2022-10-04T23:49:37.141Z,11.03
2022-10-04T23:51:40.395Z,11.05
2022-10-04T23:53:44.174Z,11.06
2022-10-04T23:55:47.181Z,11.05
2022-10-04T23:57:50.513Z,11.06
2022-10-04T23:59:53.232Z,11.05
